<?xml version="1.0" encoding="UTF-8" standalone="no" ?>
<gpx xmlns="http://www.topografix.com/GPX/1/1" xmlns:xsi="http://www.w3.org/2001/XMLSchema-instance" xsi:schemaLocation="http://www.topografix.com/GPX/1/1 http://www.topografix.com/GPX/1/1/gpx.xsd" version="1.1" creator="VisuGPX - https://www.visugpx.com">
  <metadata>
    <name>De Meillerie à Salvigny</name>
    <desc><![CDATA[Randonnée en Haute-Savoie]]></desc>
  </metadata>
  <trk>
    <name><![CDATA[ACTIVE LOG: 27 JUL 2015 10:03]]></name>
    <trkseg>
      <trkpt lat="46.33086" lon="6.76594">
        <ele>1504.12</ele>
        <time>2015-07-27T08:03:59Z</time>
      </trkpt>
      <trkpt lat="46.33112" lon="6.76658">
        <ele>1507.97</ele>
        <time>2015-07-27T08:05:04Z</time>
      </trkpt>
      <trkpt lat="46.33093" lon="6.7672">
        <ele>1511.33</ele>
        <time>2015-07-27T08:06:09Z</time>
      </trkpt>
      <trkpt lat="46.33065" lon="6.76774">
        <ele>1518.54</ele>
        <time>2015-07-27T08:07:14Z</time>
      </trkpt>
      <trkpt lat="46.33037" lon="6.7682">
        <ele>1527.19</ele>
        <time>2015-07-27T08:08:19Z</time>
      </trkpt>
      <trkpt lat="46.33006" lon="6.76828">
        <ele>1534.4</ele>
        <time>2015-07-27T08:09:24Z</time>
      </trkpt>
      <trkpt lat="46.32997" lon="6.76836">
        <ele>1542.57</ele>
        <time>2015-07-27T08:10:29Z</time>
      </trkpt>
      <trkpt lat="46.32989" lon="6.76851">
        <ele>1549.78</ele>
        <time>2015-07-27T08:11:34Z</time>
      </trkpt>
      <trkpt lat="46.3298" lon="6.76896">
        <ele>1557.95</ele>
        <time>2015-07-27T08:12:39Z</time>
      </trkpt>
      <trkpt lat="46.32982" lon="6.76941">
        <ele>1564.68</ele>
        <time>2015-07-27T08:13:44Z</time>
      </trkpt>
      <trkpt lat="46.32971" lon="6.76992">
        <ele>1572.85</ele>
        <time>2015-07-27T08:14:49Z</time>
      </trkpt>
      <trkpt lat="46.32953" lon="6.77025">
        <ele>1582.47</ele>
        <time>2015-07-27T08:15:54Z</time>
      </trkpt>
      <trkpt lat="46.32943" lon="6.7705">
        <ele>1591.12</ele>
        <time>2015-07-27T08:16:59Z</time>
      </trkpt>
      <trkpt lat="46.32936" lon="6.77075">
        <ele>1600.25</ele>
        <time>2015-07-27T08:18:04Z</time>
      </trkpt>
      <trkpt lat="46.32921" lon="6.77082">
        <ele>1609.38</ele>
        <time>2015-07-27T08:19:09Z</time>
      </trkpt>
      <trkpt lat="46.32906" lon="6.77094">
        <ele>1619.96</ele>
        <time>2015-07-27T08:20:14Z</time>
      </trkpt>
      <trkpt lat="46.32889" lon="6.77111">
        <ele>1627.65</ele>
        <time>2015-07-27T08:21:19Z</time>
      </trkpt>
      <trkpt lat="46.32872" lon="6.77138">
        <ele>1635.82</ele>
        <time>2015-07-27T08:22:24Z</time>
      </trkpt>
      <trkpt lat="46.32848" lon="6.77163">
        <ele>1643.99</ele>
        <time>2015-07-27T08:23:29Z</time>
      </trkpt>
      <trkpt lat="46.32828" lon="6.77183">
        <ele>1652.64</ele>
        <time>2015-07-27T08:24:34Z</time>
      </trkpt>
      <trkpt lat="46.32808" lon="6.77199">
        <ele>1663.22</ele>
        <time>2015-07-27T08:25:39Z</time>
      </trkpt>
      <trkpt lat="46.32798" lon="6.77224">
        <ele>1671.87</ele>
        <time>2015-07-27T08:26:44Z</time>
      </trkpt>
      <trkpt lat="46.32783" lon="6.77249">
        <ele>1682.44</ele>
        <time>2015-07-27T08:27:49Z</time>
      </trkpt>
      <trkpt lat="46.32764" lon="6.77269">
        <ele>1690.14</ele>
        <time>2015-07-27T08:28:54Z</time>
      </trkpt>
      <trkpt lat="46.32757" lon="6.773">
        <ele>1699.75</ele>
        <time>2015-07-27T08:29:59Z</time>
      </trkpt>
      <trkpt lat="46.32761" lon="6.77325">
        <ele>1709.84</ele>
        <time>2015-07-27T08:31:04Z</time>
      </trkpt>
      <trkpt lat="46.32768" lon="6.77352">
        <ele>1718.49</ele>
        <time>2015-07-27T08:32:09Z</time>
      </trkpt>
      <trkpt lat="46.32778" lon="6.77377">
        <ele>1727.63</ele>
        <time>2015-07-27T08:33:14Z</time>
      </trkpt>
      <trkpt lat="46.32776" lon="6.77408">
        <ele>1735.32</ele>
        <time>2015-07-27T08:34:19Z</time>
      </trkpt>
      <trkpt lat="46.32791" lon="6.77417">
        <ele>1744.45</ele>
        <time>2015-07-27T08:35:24Z</time>
      </trkpt>
      <trkpt lat="46.32783" lon="6.77449">
        <ele>1754.06</ele>
        <time>2015-07-27T08:36:29Z</time>
      </trkpt>
      <trkpt lat="46.32763" lon="6.77452">
        <ele>1757.91</ele>
        <time>2015-07-27T08:37:34Z</time>
      </trkpt>
      <trkpt lat="46.32738" lon="6.77467">
        <ele>1771.37</ele>
        <time>2015-07-27T08:38:39Z</time>
      </trkpt>
      <trkpt lat="46.32717" lon="6.77486">
        <ele>1778.1</ele>
        <time>2015-07-27T08:39:44Z</time>
      </trkpt>
      <trkpt lat="46.32697" lon="6.77453">
        <ele>1780.5</ele>
        <time>2015-07-27T08:40:49Z</time>
      </trkpt>
      <trkpt lat="46.32663" lon="6.77429">
        <ele>1786.75</ele>
        <time>2015-07-27T08:41:54Z</time>
      </trkpt>
      <trkpt lat="46.32631" lon="6.77392">
        <ele>1794.44</ele>
        <time>2015-07-27T08:42:59Z</time>
      </trkpt>
      <trkpt lat="46.32607" lon="6.77424">
        <ele>1804.53</ele>
        <time>2015-07-27T08:44:04Z</time>
      </trkpt>
      <trkpt lat="46.32599" lon="6.77452">
        <ele>1814.63</ele>
        <time>2015-07-27T08:45:09Z</time>
      </trkpt>
      <trkpt lat="46.3259" lon="6.7747">
        <ele>1817.03</ele>
        <time>2015-07-27T08:46:14Z</time>
      </trkpt>
      <trkpt lat="46.32579" lon="6.77461">
        <ele>1815.11</ele>
        <time>2015-07-27T08:47:19Z</time>
      </trkpt>
      <trkpt lat="46.32545" lon="6.77457">
        <ele>1813.18</ele>
        <time>2015-07-27T08:48:24Z</time>
      </trkpt>
      <trkpt lat="46.32516" lon="6.77459">
        <ele>1806.94</ele>
        <time>2015-07-27T08:49:29Z</time>
      </trkpt>
      <trkpt lat="46.32482" lon="6.77466">
        <ele>1800.69</ele>
        <time>2015-07-27T08:50:34Z</time>
      </trkpt>
      <trkpt lat="46.32428" lon="6.77489">
        <ele>1792.03</ele>
        <time>2015-07-27T08:51:39Z</time>
      </trkpt>
      <trkpt lat="46.32371" lon="6.77511">
        <ele>1778.1</ele>
        <time>2015-07-27T08:52:44Z</time>
      </trkpt>
      <trkpt lat="46.32328" lon="6.77545">
        <ele>1766.08</ele>
        <time>2015-07-27T08:53:49Z</time>
      </trkpt>
      <trkpt lat="46.32303" lon="6.7756">
        <ele>1767.04</ele>
        <time>2015-07-27T08:54:54Z</time>
      </trkpt>
      <trkpt lat="46.32295" lon="6.77593">
        <ele>1754.06</ele>
        <time>2015-07-27T08:55:59Z</time>
      </trkpt>
      <trkpt lat="46.32248" lon="6.77612">
        <ele>1740.6</ele>
        <time>2015-07-27T08:57:04Z</time>
      </trkpt>
      <trkpt lat="46.32234" lon="6.77661">
        <ele>1729.55</ele>
        <time>2015-07-27T08:58:09Z</time>
      </trkpt>
      <trkpt lat="46.32235" lon="6.7766">
        <ele>1730.03</ele>
        <time>2015-07-27T08:59:14Z</time>
      </trkpt>
      <trkpt lat="46.32198" lon="6.7771">
        <ele>1715.61</ele>
        <time>2015-07-27T09:00:19Z</time>
      </trkpt>
      <trkpt lat="46.32194" lon="6.77738">
        <ele>1708.4</ele>
        <time>2015-07-27T09:01:24Z</time>
      </trkpt>
      <trkpt lat="46.32181" lon="6.77797">
        <ele>1694.94</ele>
        <time>2015-07-27T09:02:29Z</time>
      </trkpt>
      <trkpt lat="46.32156" lon="6.77794">
        <ele>1678.12</ele>
        <time>2015-07-27T09:03:34Z</time>
      </trkpt>
      <trkpt lat="46.32141" lon="6.77825">
        <ele>1668.99</ele>
        <time>2015-07-27T09:04:39Z</time>
      </trkpt>
      <trkpt lat="46.32103" lon="6.77888">
        <ele>1649.76</ele>
        <time>2015-07-27T09:05:44Z</time>
      </trkpt>
      <trkpt lat="46.32057" lon="6.77924">
        <ele>1633.9</ele>
        <time>2015-07-27T09:06:49Z</time>
      </trkpt>
      <trkpt lat="46.32015" lon="6.7795">
        <ele>1617.07</ele>
        <time>2015-07-27T09:07:54Z</time>
      </trkpt>
      <trkpt lat="46.3199" lon="6.77971">
        <ele>1608.9</ele>
        <time>2015-07-27T09:08:59Z</time>
      </trkpt>
      <trkpt lat="46.31963" lon="6.77992">
        <ele>1597.37</ele>
        <time>2015-07-27T09:10:04Z</time>
      </trkpt>
      <trkpt lat="46.31945" lon="6.7804">
        <ele>1587.75</ele>
        <time>2015-07-27T09:11:09Z</time>
      </trkpt>
      <trkpt lat="46.31938" lon="6.78027">
        <ele>1586.79</ele>
        <time>2015-07-27T09:11:41Z</time>
      </trkpt>
    </trkseg>
  </trk>
</gpx>